General Pico Airport


Codes: SAZG/GPO
Name: General Pico Airport
City: General Pico
Country: Argentina
Elevation: 459 ft.

Photos at General Pico Airport


   Photos courtesy of SpottingLog. You can add your own sightings and photos by signing up for a free trial today.



No photos found.

Weather at General Pico Airport


Time (UTC)DescriptionTempratureWindCloud coverageVisibilityPressureHumidity
16-Jun-2024 09:00Overcast Clouds12°C2 mph, NW100%10000m1019hPa51%
16-Jun-2024 12:00Overcast Clouds12°C7 mph, NE100%10000m1019hPa52%
16-Jun-2024 15:00Broken Clouds15°C11 mph, NE53%10000m1020hPa45%
16-Jun-2024 18:00Few Clouds20°C11 mph, N17%10000m1018hPa31%
16-Jun-2024 21:00Clear Sky15°C7 mph, NE3%10000m1017hPa43%
17-Jun-2024 00:00Clear Sky12°C9 mph, NE2%10000m1017hPa54%
17-Jun-2024 03:00Clear Sky10°C9 mph, NE6%10000m1017hPa59%
17-Jun-2024 06:00Clear Sky8°C9 mph, NE7%10000m1016hPa69%
17-Jun-2024 09:00Few Clouds7°C7 mph, NE16%10000m1014hPa74%
17-Jun-2024 12:00Clear Sky7°C9 mph, NE9%10000m1014hPa80%
17-Jun-2024 15:00Clear Sky15°C16 mph, N5%10000m1011hPa58%
17-Jun-2024 18:00Few Clouds19°C13 mph, N21%10000m1008hPa52%
17-Jun-2024 21:00Overcast Clouds16°C9 mph, NE100%10000m1006hPa71%
18-Jun-2024 00:00Overcast Clouds13°C11 mph, NE100%10000m1007hPa84%
18-Jun-2024 03:00Overcast Clouds12°C7 mph, N100%10000m1006hPa93%
18-Jun-2024 06:00Overcast Clouds11°C7 mph, N100%10000m1006hPa95%
18-Jun-2024 09:00Overcast Clouds10°C7 mph, N87%10000m1005hPa96%
18-Jun-2024 12:00Broken Clouds10°C4 mph, NW79%10000m1005hPa96%
18-Jun-2024 15:00Broken Clouds14°C4 mph, S69%10000m1006hPa78%
18-Jun-2024 18:00Broken Clouds17°C9 mph, SE81%10000m1005hPa68%
18-Jun-2024 21:00Broken Clouds13°C9 mph, E61%10000m1006hPa90%
19-Jun-2024 00:00Broken Clouds11°C9 mph, SE82%10000m1008hPa95%
19-Jun-2024 03:00Broken Clouds10°C9 mph, S79%10000m1010hPa95%
19-Jun-2024 06:00Overcast Clouds9°C7 mph, S89%10000m1011hPa94%
19-Jun-2024 09:00Broken Clouds8°C9 mph, S73%10000m1012hPa87%
19-Jun-2024 12:00Broken Clouds11°C16 mph, S83%10000m1015hPa62%
19-Jun-2024 15:00Broken Clouds13°C11 mph, S66%10000m1016hPa52%
19-Jun-2024 18:00Broken Clouds15°C9 mph, S68%10000m1015hPa44%
19-Jun-2024 21:00Broken Clouds11°C7 mph, S57%10000m1017hPa58%
20-Jun-2024 00:00Scattered Clouds8°C4 mph, SE31%10000m1019hPa70%
20-Jun-2024 03:00Clear Sky7°C4 mph, SE0%10000m1019hPa76%
20-Jun-2024 06:00Clear Sky5°C7 mph, NE0%10000m1019hPa87%
20-Jun-2024 09:00Few Clouds5°C7 mph, NE20%10000m1018hPa93%
20-Jun-2024 12:00Few Clouds5°C9 mph, NE11%10000m1018hPa95%
20-Jun-2024 15:00Scattered Clouds13°C18 mph, NE34%10000m1016hPa60%
20-Jun-2024 18:00Broken Clouds13°C16 mph, NE67%10000m1013hPa68%
20-Jun-2024 21:00Overcast Clouds13°C16 mph, NE100%10000m1012hPa72%
21-Jun-2024 00:00Overcast Clouds13°C11 mph, NE100%10000m1011hPa76%
21-Jun-2024 03:00Overcast Clouds14°C16 mph, NE100%10000m1010hPa70%
21-Jun-2024 06:00Overcast Clouds13°C13 mph, NE100%10000m1010hPa78%